Terminal Aerodrome Forecast
Issued by NWS Tuscon, AZ

Home | Current Version | Previous Version | Text Only | Print | Product List | Glossary On
Versions: 1 2 3 4 5 6 7 8 9 10 11 12 13
000
FTUS45 KTWC 280520
TAFTUS
TAF
KTUS 280520Z 2806/2906 13015KT P6SM -SHRA FEW070 BKN100
     FM280900 13008KT P6SM FEW100 BKN150
     FM282100 32007KT P6SM VCSH SCT070 BKN120
     FM290200 03005KT P6SM FEW100 BKN150=

USA.gov is the U.S. government's official web portal to all federal, state and local government web resources and services.